Time;durP1;ratioP1;P1;durP2;ratioP2;P2;SDS_P1;SDS_P2;PMS_P1;PMS_P2;Temp;Humidity;BMP_temperature;BMP_pressure;BME280_temperature;BME280_humidity;BME280_pressure;Samples;Min_cycle;Max_cycle;Signal;HPM_P1;HPM_P2
2023/01/10 05:48:10;;;;;;;6.97;3.97;;;3.40;99.90;;;;;;7602911;19;20386;-76
2023/01/10 05:50:42;;;;;;;10.15;6.10;;;3.40;99.90;;;;;;7607832;19;20026;-74
2023/01/10 05:53:14;;;;;;;10.50;5.75;;;3.40;99.90;;;;;;7616798;19;20134;-74
2023/01/10 05:55:57;;;;;;;9.85;5.07;;;3.50;99.90;;;;;;7617385;19;20555;-76
2023/01/10 05:58:29;;;;;;;7.18;4.30;;;3.60;99.90;;;;;;7603529;19;20089;-75
2023/01/10 06:01:01;;;;;;;8.77;4.25;;;3.60;99.90;;;;;;7593178;19;20658;-75
2023/01/10 06:03:34;;;;;;;6.90;3.97;;;3.70;99.90;;;;;;7592594;19;21112;-75
2023/01/10 06:06:06;;;;;;;7.63;3.60;;;3.70;99.90;;;;;;7603829;19;20022;-74
2023/01/10 06:08:39;;;;;;;5.53;3.42;;;3.70;99.90;;;;;;7610053;19;20138;-77
2023/01/10 06:11:12;;;;;;;7.00;3.95;;;3.80;99.90;;;;;;7628942;19;20099;-76
2023/01/10 06:13:44;;;;;;;6.35;3.67;;;3.80;99.90;;;;;;7601729;19;20013;-76
2023/01/10 06:16:16;;;;;;;3.40;2.85;;;3.90;99.90;;;;;;7598073;19;20014;-75
2023/01/10 06:18:48;;;;;;;5.13;3.10;;;3.90;99.90;;;;;;7589229;19;20126;-74
2023/01/10 06:21:20;;;;;;;3.80;3.20;;;3.90;99.90;;;;;;7613026;19;20011;-76
2023/01/10 06:23:52;;;;;;;3.85;2.88;;;3.90;99.90;;;;;;7607328;19;20022;-76
2023/01/10 06:26:25;;;;;;;3.83;2.78;;;3.90;99.90;;;;;;7564447;19;20031;-76
2023/01/10 06:28:58;;;;;;;5.60;3.00;;;3.90;99.90;;;;;;7599246;19;20014;-77
2023/01/10 06:31:30;;;;;;;4.85;3.08;;;3.90;99.90;;;;;;7605310;19;20709;-76
2023/01/10 06:34:02;;;;;;;3.25;2.55;;;4.00;99.90;;;;;;7603753;19;20015;-76
2023/01/10 06:36:34;;;;;;;4.03;2.70;;;4.00;99.90;;;;;;7601428;19;20499;-75
2023/01/10 06:39:06;;;;;;;12.60;6.60;;;4.00;99.90;;;;;;7642867;19;20876;-78
2023/01/10 06:41:38;;;;;;;3.83;3.10;;;4.00;99.90;;;;;;7629973;19;20022;-77
2023/01/10 06:44:10;;;;;;;5.00;2.30;;;4.00;99.90;;;;;;7636089;19;20034;-76
2023/01/10 06:46:42;;;;;;;4.28;2.47;;;3.90;99.90;;;;;;7626570;19;20022;-76
2023/01/10 06:49:15;;;;;;;5.13;2.53;;;4.10;99.90;;;;;;7627997;19;20044;-74
2023/01/10 06:51:47;;;;;;;3.70;2.85;;;4.00;99.90;;;;;;7601176;19;21049;-76
2023/01/10 06:54:18;;;;;;;4.70;2.88;;;4.00;99.90;;;;;;7638153;19;20037;-76
2023/01/10 06:56:50;;;;;;;3.92;2.22;;;4.10;99.90;;;;;;7634732;19;20325;-76
2023/01/10 06:59:23;;;;;;;3.72;2.90;;;4.10;99.90;;;;;;7613803;19;20033;-76
2023/01/10 07:01:55;;;;;;;3.58;2.30;;;4.10;99.90;;;;;;7604679;19;20015;-75
2023/01/10 07:04:28;;;;;;;4.13;2.47;;;4.10;99.90;;;;;;7605785;19;20091;-76
2023/01/10 07:07:00;;;;;;;3.60;2.80;;;4.10;99.90;;;;;;7604716;19;20033;-76
2023/01/10 07:09:32;;;;;;;4.97;2.90;;;4.10;99.90;;;;;;7609980;19;21427;-76
2023/01/10 07:12:05;;;;;;;5.65;2.72;;;4.10;99.90;;;;;;7600772;19;20111;-77
2023/01/10 07:14:37;;;;;;;3.33;2.75;;;4.00;99.90;;;;;;7604613;19;20037;-76
2023/01/10 07:17:09;;;;;;;4.28;3.08;;;4.00;99.90;;;;;;7605380;19;20575;-76
2023/01/10 07:19:41;;;;;;;3.65;2.65;;;4.10;99.90;;;;;;7606070;19;20018;-76
2023/01/10 07:22:13;;;;;;;3.85;2.85;;;4.00;99.90;;;;;;7597711;19;20022;-77
2023/01/10 07:24:45;;;;;;;3.47;3.03;;;4.00;99.90;;;;;;7608243;19;20029;-78
2023/01/10 07:27:17;;;;;;;4.40;3.15;;;4.00;99.90;;;;;;7605374;19;20022;-76
2023/01/10 17:13:10;;;;;;;15.88;4.43;;;2.90;99.90;;;;;;7569811;19;20374;-71
2023/01/10 17:15:42;;;;;;;14.95;4.80;;;2.90;99.90;;;;;;7586107;19;20496;-71
2023/01/10 17:18:19;;;;;;;10.60;4.50;;;2.90;99.90;;;;;;7583619;19;20040;-72
2023/01/10 17:20:51;;;;;;;9.82;3.95;;;2.90;99.90;;;;;;7563888;19;20052;-71
2023/01/10 17:23:25;;;;;;;10.27;4.03;;;2.90;99.90;;;;;;7566500;19;21447;-71
2023/01/10 17:26:02;;;;;;;19.13;5.80;;;2.80;99.90;;;;;;7562247;19;20108;-71
2023/01/10 17:28:34;;;;;;;16.05;6.15;;;2.80;99.90;;;;;;7582640;19;20013;-71
2023/01/10 17:31:08;;;;;;;17.00;7.70;;;2.90;99.90;;;;;;7587603;19;21433;-71
2023/01/10 17:33:41;;;;;;;22.05;8.43;;;3.00;99.90;;;;;;7596377;19;20018;-71
2023/01/10 17:36:13;;;;;;;20.50;9.05;;;2.90;99.90;;;;;;7579869;19;20014;-71
2023/01/10 17:38:45;;;;;;;24.60;8.07;;;2.90;99.90;;;;;;7591617;19;20838;-72
2023/01/10 17:41:17;;;;;;;14.38;6.18;;;3.00;99.90;;;;;;7601778;19;20085;-71
2023/01/10 17:43:49;;;;;;;19.15;6.72;;;3.00;99.90;;;;;;7588973;19;20022;-72
2023/01/10 17:46:21;;;;;;;16.80;7.47;;;3.00;99.90;;;;;;7598750;19;20022;-72
2023/01/10 17:48:56;;;;;;;17.75;7.32;;;3.00;99.90;;;;;;7595800;19;20017;-71
2023/01/10 17:51:28;;;;;;;25.35;8.05;;;3.00;99.90;;;;;;7571160;19;20372;-72
2023/01/10 17:54:01;;;;;;;19.80;7.47;;;2.90;99.90;;;;;;7558589;19;21037;-72
2023/01/10 17:56:33;;;;;;;21.40;7.65;;;2.80;99.90;;;;;;7514619;19;20029;-69
2023/01/10 17:59:06;;;;;;;15.33;7.73;;;2.70;99.90;;;;;;7573268;19;20029;-71
2023/01/10 18:01:40;;;;;;;16.50;7.10;;;2.50;99.90;;;;;;7583603;19;20044;-71
2023/01/10 18:04:13;;;;;;;25.92;7.82;;;2.30;99.90;;;;;;7586461;19;20010;-71
2023/01/10 18:06:45;;;;;;;17.87;7.77;;;2.30;99.90;;;;;;7585228;19;20017;-70
2023/01/10 18:09:18;;;;;;;17.88;8.40;;;2.30;99.90;;;;;;7591401;19;20012;-71
2023/01/10 18:11:50;;;;;;;21.13;9.48;;;2.30;99.90;;;;;;7592943;19;20671;-71
2023/01/10 18:14:37;;;;;;;22.45;9.32;;;2.20;99.90;;;;;;7561552;19;20018;-71
2023/01/10 18:17:11;;;;;;;24.08;11.95;;;2.10;99.90;;;;;;7569551;19;20021;-70
2023/01/10 18:19:43;;;;;;;;;;;2.30;99.90;;;;;;7546233;19;20026;-68
2023/01/10 18:25:06;;;;;;;24.27;10.93;;;2.30;99.90;;;;;;7529378;19;20723;-68
2023/01/10 18:27:41;;;;;;;22.85;12.38;;;2.10;99.90;;;;;;7559914;19;20025;-69
2023/01/10 18:30:17;;;;;;;27.70;13.63;;;2.10;99.90;;;;;;7565087;19;20019;-69
2023/01/10 18:32:52;;;;;;;31.70;12.98;;;2.20;99.90;;;;;;7540441;19;20011;-70
2023/01/10 18:35:26;;;;;;;24.73;11.18;;;2.20;99.90;;;;;;7561183;19;20660;-71
2023/01/10 18:37:59;;;;;;;23.23;11.55;;;2.20;99.90;;;;;;7579970;19;20010;-70
2023/01/10 18:40:31;;;;;;;26.42;12.10;;;2.00;99.90;;;;;;7561448;19;20052;-71
2023/01/10 18:43:03;;;;;;;27.08;12.85;;;1.90;99.90;;;;;;7586304;19;20044;-71
2023/01/10 18:45:35;;;;;;;26.60;14.43;;;1.80;99.90;;;;;;7545153;19;20055;-71
2023/01/10 18:48:09;;;;;;;30.90;13.27;;;1.90;99.90;;;;;;7549563;19;20122;-70
2023/01/10 18:50:43;;;;;;;22.50;10.30;;;2.00;99.90;;;;;;7565973;19;20017;-71
2023/01/10 18:53:17;;;;;;;19.20;9.85;;;2.00;99.90;;;;;;7554892;19;20518;-69
2023/01/10 18:56:00;;;;;;;16.83;8.82;;;2.00;99.90;;;;;;7516105;19;20025;-71
2023/01/10 18:58:38;;;;;;;17.02;8.88;;;2.00;99.90;;;;;;7587066;19;20104;-70
2023/01/10 19:01:16;;;;;;;31.20;9.30;;;1.90;99.90;;;;;;7569778;19;20015;-70
2023/01/10 19:03:49;;;;;;;17.83;9.52;;;2.00;99.90;;;;;;7582085;19;20937;-70
2023/01/10 19:06:21;;;;;;;21.45;8.93;;;1.90;99.90;;;;;;7598741;19;20022;-70
2023/01/10 19:08:54;;;;;;;23.42;7.18;;;1.80;99.90;;;;;;7591381;19;20019;-72
2023/01/10 19:11:26;;;;;;;26.08;8.40;;;1.90;99.90;;;;;;7577641;19;20018;-70
2023/01/10 19:13:59;;;;;;;27.20;9.93;;;1.80;99.90;;;;;;6550325;19;10000030;-68
2023/01/10 19:16:31;;;;;;;16.67;8.60;;;1.80;99.90;;;;;;7562931;19;20325;-70
2023/01/10 19:19:08;;;;;;;22.20;8.55;;;1.80;99.90;;;;;;7566514;19;20451;-70
2023/01/10 19:21:41;;;;;;;25.52;7.97;;;1.80;99.90;;;;;;7551084;19;20049;-71
2023/01/10 19:24:26;;;;;;;18.45;6.82;;;1.70;99.90;;;;;;7555080;19;20007;-71
2023/01/10 19:26:58;;;;;;;12.93;7.00;;;1.70;99.90;;;;;;7572739;19;20014;-71
2023/01/10 19:29:30;;;;;;;19.92;7.00;;;1.60;99.90;;;;;;7546546;19;20011;-71
2023/01/10 19:32:02;;;;;;;17.05;7.55;;;1.60;99.90;;;;;;7571314;19;20411;-71
2023/01/10 19:34:35;;;;;;;16.33;7.53;;;1.50;99.90;;;;;;7547029;19;20061;-71
2023/01/10 19:37:08;;;;;;;20.85;9.48;;;1.60;99.90;;;;;;7545192;19;20021;-71
2023/01/10 19:39:40;;;;;;;15.40;7.87;;;1.50;99.90;;;;;;7540845;19;20017;-69
2023/01/10 19:42:13;;;;;;;19.23;8.57;;;1.50;99.90;;;;;;7563412;19;20279;-71
2023/01/10 19:44:45;;;;;;;17.85;8.63;;;1.40;99.90;;;;;;7564172;19;20375;-71
2023/01/10 19:47:20;;;;;;;18.60;7.68;;;1.40;99.90;;;;;;7574893;19;20022;-70
2023/01/10 19:49:52;;;;;;;17.48;8.48;;;1.40;99.90;;;;;;7571146;19;20554;-70
2023/01/10 19:52:28;;;;;;;13.60;8.05;;;1.40;99.90;;;;;;7559940;19;20103;-69
2023/01/10 19:55:01;;;;;;;16.02;8.20;;;1.30;99.90;;;;;;7528962;19;20018;-70
2023/01/10 19:57:33;;;;;;;20.48;9.02;;;1.20;99.90;;;;;;7525834;19;20071;-69
2023/01/10 20:00:07;;;;;;;15.85;7.30;;;1.20;99.90;;;;;;7543092;19;20068;-68
2023/01/10 20:02:42;;;;;;;20.17;8.23;;;1.20;99.90;;;;;;7540562;19;20039;-68
2023/01/10 20:05:15;;;;;;;18.10;8.52;;;1.20;99.90;;;;;;7550831;19;21129;-70
2023/01/10 20:07:48;;;;;;;15.20;7.07;;;1.10;99.90;;;;;;7564849;19;20051;-69
2023/01/10 20:10:21;;;;;;;17.67;6.65;;;1.20;99.90;;;;;;7557092;19;20817;-69
2023/01/10 20:12:53;;;;;;;11.48;5.95;;;1.20;99.90;;;;;;7568186;19;20546;-69
2023/01/10 20:15:25;;;;;;;10.65;6.07;;;1.10;99.90;;;;;;7564405;19;20020;-70
2023/01/10 20:17:58;;;;;;;13.60;6.53;;;1.20;99.90;;;;;;7582286;19;20014;-69
2023/01/10 20:20:30;;;;;;;11.48;5.95;;;1.20;99.90;;;;;;7565884;19;20015;-69
2023/01/10 20:23:04;;;;;;;14.52;6.53;;;1.20;99.90;;;;;;7576723;19;20010;-69
2023/01/10 20:25:36;;;;;;;16.58;6.53;;;1.10;99.90;;;;;;7585292;19;20027;-70
2023/01/10 20:28:09;;;;;;;13.90;5.85;;;1.10;99.90;;;;;;7587574;19;20034;-69
2023/01/10 20:30:41;;;;;;;15.55;6.60;;;1.10;99.90;;;;;;7590024;19;20006;-69
2023/01/10 20:33:13;;;;;;;17.08;7.20;;;1.00;99.90;;;;;;7572921;19;21089;-71
2023/01/10 20:36:12;;;;;;;14.52;5.75;;;1.00;99.90;;;;;;7583309;19;20070;-70
2023/01/10 20:38:45;;;;;;;16.52;6.40;;;1.10;99.90;;;;;;7560715;19;21080;-70
2023/01/10 20:41:23;;;;;;;12.05;5.88;;;1.00;99.90;;;;;;7570983;19;20022;-71
2023/01/10 20:43:56;;;;;;;9.82;4.93;;;1.00;99.90;;;;;;7586944;19;20022;-71
2023/01/10 20:46:30;;;;;;;14.93;4.50;;;1.00;99.90;;;;;;7566156;19;20014;-71
2023/01/10 20:49:02;;;;;;;12.13;5.38;;;1.00;99.90;;;;;;7581062;19;20014;-71
2023/01/10 20:51:35;;;;;;;13.90;5.55;;;1.00;99.90;;;;;;7583037;19;20022;-69
2023/01/10 20:54:08;;;;;;;14.65;5.55;;;1.00;99.90;;;;;;7592172;19;20042;-71
2023/01/10 20:56:41;;;;;;;10.60;4.95;;;1.00;99.90;;;;;;7578319;19;20012;-70
2023/01/10 20:59:12;;;;;;;15.70;5.72;;;1.00;99.90;;;;;;7574525;19;20980;-69
2023/01/10 21:01:45;;;;;;;12.90;5.63;;;1.00;99.90;;;;;;7565150;19;20387;-69
2023/01/10 21:04:17;;;;;;;11.80;5.47;;;1.00;99.90;;;;;;7581285;19;20027;-72
2023/01/10 21:06:50;;;;;;;9.65;4.97;;;1.00;99.90;;;;;;7577015;19;20014;-68
2023/01/10 21:09:23;;;;;;;9.07;4.85;;;1.00;99.90;;;;;;7574336;19;20010;-69
2023/01/10 21:11:55;;;;;;;10.43;5.38;;;1.10;99.90;;;;;;7560993;19;20014;-68
2023/01/10 21:14:48;;;;;;;14.23;5.28;;;1.10;99.90;;;;;;7535529;19;20108;-69
2023/01/10 21:17:20;;;;;;;11.35;4.70;;;1.10;99.90;;;;;;7553572;19;20378;-69
2023/01/10 21:19:52;;;;;;;6.80;4.30;;;1.10;99.90;;;;;;7542823;19;20025;-71
2023/01/10 21:22:26;;;;;;;6.47;3.22;;;1.10;99.90;;;;;;7566177;19;20053;-71
2023/01/10 21:24:59;;;;;;;11.43;5.60;;;1.20;99.90;;;;;;7600705;19;20018;-71
2023/01/10 21:27:31;;;;;;;7.87;4.07;;;1.20;99.90;;;;;;7591563;19;20011;-71
2023/01/10 21:30:05;;;;;;;10.65;3.55;;;1.20;99.90;;;;;;7583488;19;20021;-72
2023/01/10 21:32:37;;;;;;;;;;;1.30;99.90;;;;;;7590655;19;20010;-72
2023/01/10 21:35:09;;;;;;;10.63;3.65;;;1.30;99.90;;;;;;7596069;19;19990;-71
2023/01/10 21:37:41;;;;;;;10.60;4.10;;;1.20;99.90;;;;;;7592973;19;20022;-72
2023/01/10 21:40:13;;;;;;;10.60;4.45;;;1.20;99.90;;;;;;7586675;19;20018;-70
2023/01/10 21:42:46;;;;;;;11.60;4.25;;;1.30;99.90;;;;;;7585344;19;20018;-70
2023/01/10 21:45:20;;;;;;;11.55;4.53;;;1.30;99.90;;;;;;7573921;19;20018;-72
2023/01/10 21:47:52;;;;;;;8.77;3.90;;;1.30;99.90;;;;;;7088907;19;10000478;-71
2023/01/10 21:50:24;;;;;;;9.20;3.85;;;1.40;99.90;;;;;;7592142;19;20014;-71
2023/01/10 21:52:56;;;;;;;12.57;3.70;;;1.50;99.90;;;;;;7591511;19;20025;-71
2023/01/10 21:55:29;;;;;;;13.48;4.03;;;1.60;99.90;;;;;;7578722;19;20030;-70
2023/01/10 21:58:02;;;;;;;17.30;5.87;;;1.60;99.90;;;;;;7577026;19;20030;-72
2023/01/10 22:04:16;;;;;;;14.98;6.00;;;1.70;99.90;;;;;;7557663;19;20018;-72
2023/01/10 22:06:48;;;;;;;13.93;4.78;;;1.70;99.90;;;;;;7572933;19;20098;-71
2023/01/10 22:09:23;;;;;;;9.77;4.50;;;1.70;99.90;;;;;;7582394;19;20007;-72
2023/01/10 22:11:55;;;;;;;8.63;3.60;;;1.60;99.90;;;;;;7578385;19;20018;-71
2023/01/10 22:14:27;;;;;;;11.13;3.28;;;1.70;99.90;;;;;;7583566;19;20271;-71
2023/01/10 22:16:59;;;;;;;10.32;4.15;;;1.70;99.90;;;;;;7557838;19;20487;-72
2023/01/10 22:19:31;;;;;;;6.68;4.10;;;1.70;99.90;;;;;;7569107;19;20011;-72
2023/01/10 22:22:04;;;;;;;8.32;3.97;;;1.60;99.90;;;;;;7584410;19;20106;-69
2023/01/10 22:24:37;;;;;;;10.98;3.65;;;1.60;99.90;;;;;;7590597;19;20022;-69
2023/01/10 22:27:09;;;;;;;7.63;3.83;;;1.60;99.90;;;;;;7576267;19;20503;-69
2023/01/10 22:29:42;;;;;;;7.25;3.22;;;1.60;99.90;;;;;;7590896;19;20023;-70
2023/01/10 22:32:14;;;;;;;8.77;3.72;;;1.50;99.90;;;;;;7550652;19;20038;-70
2023/01/10 22:34:46;;;;;;;6.47;2.75;;;1.50;99.90;;;;;;7565875;19;20014;-69
2023/01/10 22:37:18;;;;;;;7.45;3.05;;;1.40;99.90;;;;;;7566149;19;20018;-69
2023/01/10 22:39:50;;;;;;;6.95;3.40;;;1.40;99.90;;;;;;7578242;19;20455;-70
2023/01/10 22:42:22;;;;;;;11.38;4.95;;;1.50;99.90;;;;;;7575902;19;20015;-70
2023/01/10 22:44:54;;;;;;;10.18;3.47;;;1.40;99.90;;;;;;7578904;19;21079;-69
2023/01/10 22:47:26;;;;;;;7.30;2.92;;;1.30;99.90;;;;;;7557680;19;20014;-69
2023/01/10 22:49:59;;;;;;;5.60;3.30;;;1.30;99.90;;;;;;7545751;19;21125;-69
2023/01/10 22:52:31;;;;;;;11.77;3.13;;;1.30;99.90;;;;;;7540537;19;20018;-69
2023/01/10 22:55:03;;;;;;;6.88;2.90;;;1.40;99.90;;;;;;7557762;19;20025;-69
2023/01/10 22:57:35;;;;;;;9.02;3.00;;;1.40;99.90;;;;;;7580494;19;20026;-70
2023/01/10 23:00:19;;;;;;;4.85;2.90;;;1.30;99.90;;;;;;7593637;19;20739;-70
2023/01/10 23:02:51;;;;;;;11.27;2.95;;;1.30;99.90;;;;;;7590208;19;20015;-70
2023/01/10 23:05:23;;;;;;;6.80;3.00;;;1.30;99.90;;;;;;7576701;19;20020;-69
2023/01/10 23:07:55;;;;;;;8.83;3.30;;;1.30;99.90;;;;;;7581125;19;20019;-69
2023/01/10 23:10:27;;;;;;;9.27;3.38;;;1.40;99.90;;;;;;7592761;19;20017;-69
2023/01/10 23:13:03;;;;;;;7.50;3.40;;;1.40;99.90;;;;;;7585421;19;20011;-70
2023/01/10 23:15:35;;;;;;;6.80;2.97;;;1.30;99.90;;;;;;7582808;19;20018;-69
2023/01/10 23:18:08;;;;;;;8.60;3.40;;;1.40;99.90;;;;;;7587829;19;20022;-69
2023/01/10 23:20:40;;;;;;;7.15;2.90;;;1.40;99.90;;;;;;7561043;19;20021;-69
2023/01/10 23:23:12;;;;;;;7.65;3.03;;;1.30;99.90;;;;;;7591110;19;20111;-70
2023/01/10 23:25:45;;;;;;;5.22;2.70;;;1.30;99.90;;;;;;7576916;19;20014;-70
2023/01/10 23:28:17;;;;;;;5.97;2.70;;;1.30;99.90;;;;;;7589780;19;20580;-69
2023/01/10 23:30:50;;;;;;;6.07;2.50;;;1.30;99.90;;;;;;7584643;19;20022;-70
2023/01/10 23:33:22;;;;;;;4.97;2.80;;;1.30;99.90;;;;;;7589644;19;20018;-70
2023/01/10 23:35:54;;;;;;;7.28;2.63;;;1.40;99.90;;;;;;7575727;19;20038;-70
2023/01/10 23:38:26;;;;;;;4.97;2.60;;;1.50;99.90;;;;;;7587597;19;20534;-71
2023/01/10 23:40:59;;;;;;;4.78;1.95;;;1.50;99.90;;;;;;7569480;19;20597;-70
2023/01/10 23:43:32;;;;;;;5.40;2.10;;;1.50;99.90;;;;;;7585697;19;20488;-70
2023/01/10 23:46:05;;;;;;;7.35;2.70;;;1.60;99.90;;;;;;7591462;19;20018;-70
2023/01/10 23:48:37;;;;;;;4.07;2.10;;;1.60;99.90;;;;;;7582992;19;20098;-70
2023/01/10 23:51:10;;;;;;;4.25;1.95;;;1.60;99.90;;;;;;7575615;19;20011;-70
2023/01/10 23:53:42;;;;;;;4.57;1.83;;;1.60;99.90;;;;;;7583321;19;20014;-70
2023/01/10 23:56:14;;;;;;;4.53;2.15;;;1.60;99.90;;;;;;7582805;19;20033;-70
2023/01/10 23:58:51;;;;;;;4.97;2.70;;;1.60;99.90;;;;;;7580038;19;20066;-71
